sensor_id;sensor_type;location;lat;lon;timestamp;P1;durP1;ratioP1;P2;durP2;ratioP2
31424;SDS011;18054;51.572;7.372;2023-04-23T00:02:34;87.85;;;49.78;;
31424;SDS011;18054;51.572;7.372;2023-04-23T00:05:03;88.38;;;47.92;;
31424;SDS011;18054;51.572;7.372;2023-04-23T00:07:32;86.22;;;47.45;;
31424;SDS011;18054;51.572;7.372;2023-04-23T00:12:29;87.72;;;48.22;;
31424;SDS011;18054;51.572;7.372;2023-04-23T00:14:56;91.32;;;47.97;;
31424;SDS011;18054;51.572;7.372;2023-04-23T00:17:24;90.45;;;48.38;;
31424;SDS011;18054;51.572;7.372;2023-04-23T00:19:53;95.75;;;50.33;;
31424;SDS011;18054;51.572;7.372;2023-04-23T00:22:20;94.70;;;49.88;;
31424;SDS011;18054;51.572;7.372;2023-04-23T00:24:48;88.43;;;48.22;;
31424;SDS011;18054;51.572;7.372;2023-04-23T00:27:15;106.93;;;50.92;;
31424;SDS011;18054;51.572;7.372;2023-04-23T00:29:43;95.28;;;51.00;;
31424;SDS011;18054;51.572;7.372;2023-04-23T00:32:11;118.90;;;52.22;;
31424;SDS011;18054;51.572;7.372;2023-04-23T00:34:39;115.00;;;52.10;;
31424;SDS011;18054;51.572;7.372;2023-04-23T00:39:36;101.45;;;50.22;;
31424;SDS011;18054;51.572;7.372;2023-04-23T00:42:04;123.18;;;52.67;;
31424;SDS011;18054;51.572;7.372;2023-04-23T00:44:37;126.60;;;55.75;;
31424;SDS011;18054;51.572;7.372;2023-04-23T00:49:33;135.00;;;54.97;;
31424;SDS011;18054;51.572;7.372;2023-04-23T00:52:00;105.50;;;52.92;;
31424;SDS011;18054;51.572;7.372;2023-04-23T00:54:28;113.28;;;53.10;;
31424;SDS011;18054;51.572;7.372;2023-04-23T00:56:56;111.68;;;56.47;;
31424;SDS011;18054;51.572;7.372;2023-04-23T00:59:25;103.70;;;53.45;;
31424;SDS011;18054;51.572;7.372;2023-04-23T01:01:53;114.28;;;52.50;;
31424;SDS011;18054;51.572;7.372;2023-04-23T01:04:20;113.28;;;53.72;;
31424;SDS011;18054;51.572;7.372;2023-04-23T01:06:48;111.57;;;51.65;;
31424;SDS011;18054;51.572;7.372;2023-04-23T01:09:16;110.95;;;53.28;;
31424;SDS011;18054;51.572;7.372;2023-04-23T01:11:44;110.43;;;52.70;;
31424;SDS011;18054;51.572;7.372;2023-04-23T01:14:14;103.15;;;53.22;;
31424;SDS011;18054;51.572;7.372;2023-04-23T01:16:42;104.78;;;52.17;;
31424;SDS011;18054;51.572;7.372;2023-04-23T01:21:38;120.10;;;52.28;;
31424;SDS011;18054;51.572;7.372;2023-04-23T01:24:09;117.65;;;56.50;;
31424;SDS011;18054;51.572;7.372;2023-04-23T01:26:37;112.57;;;54.75;;
31424;SDS011;18054;51.572;7.372;2023-04-23T01:29:04;120.05;;;57.63;;
31424;SDS011;18054;51.572;7.372;2023-04-23T01:31:33;103.20;;;54.78;;
31424;SDS011;18054;51.572;7.372;2023-04-23T01:34:00;128.18;;;56.72;;
31424;SDS011;18054;51.572;7.372;2023-04-23T01:36:28;116.00;;;53.92;;
31424;SDS011;18054;51.572;7.372;2023-04-23T01:38:56;131.27;;;58.08;;
31424;SDS011;18054;51.572;7.372;2023-04-23T01:41:25;119.32;;;55.58;;
31424;SDS011;18054;51.572;7.372;2023-04-23T01:43:52;114.43;;;54.35;;
31424;SDS011;18054;51.572;7.372;2023-04-23T01:46:20;120.82;;;55.05;;
31424;SDS011;18054;51.572;7.372;2023-04-23T01:48:48;133.57;;;58.42;;
31424;SDS011;18054;51.572;7.372;2023-04-23T01:51:15;145.05;;;58.78;;
31424;SDS011;18054;51.572;7.372;2023-04-23T01:53:43;121.55;;;55.28;;
31424;SDS011;18054;51.572;7.372;2023-04-23T01:56:10;136.25;;;56.67;;
31424;SDS011;18054;51.572;7.372;2023-04-23T01:58:40;124.53;;;56.22;;
31424;SDS011;18054;51.572;7.372;2023-04-23T02:01:07;119.00;;;53.83;;
31424;SDS011;18054;51.572;7.372;2023-04-23T02:03:35;147.75;;;60.40;;
31424;SDS011;18054;51.572;7.372;2023-04-23T02:06:03;155.15;;;58.05;;
31424;SDS011;18054;51.572;7.372;2023-04-23T02:10:58;138.82;;;55.85;;
31424;SDS011;18054;51.572;7.372;2023-04-23T02:13:25;170.45;;;58.15;;
31424;SDS011;18054;51.572;7.372;2023-04-23T02:15:54;133.45;;;57.60;;
31424;SDS011;18054;51.572;7.372;2023-04-23T02:18:22;174.02;;;59.35;;
31424;SDS011;18054;51.572;7.372;2023-04-23T02:20:49;147.30;;;57.45;;
31424;SDS011;18054;51.572;7.372;2023-04-23T02:23:17;127.22;;;55.70;;
31424;SDS011;18054;51.572;7.372;2023-04-23T02:25:44;124.88;;;55.28;;
31424;SDS011;18054;51.572;7.372;2023-04-23T02:28:11;141.98;;;56.63;;
31424;SDS011;18054;51.572;7.372;2023-04-23T02:30:39;165.95;;;56.85;;
31424;SDS011;18054;51.572;7.372;2023-04-23T02:33:12;159.20;;;56.10;;
31424;SDS011;18054;51.572;7.372;2023-04-23T02:35:39;191.43;;;58.25;;
31424;SDS011;18054;51.572;7.372;2023-04-23T02:38:07;233.48;;;59.42;;
31424;SDS011;18054;51.572;7.372;2023-04-23T02:40:34;152.88;;;55.35;;
31424;SDS011;18054;51.572;7.372;2023-04-23T02:43:02;168.00;;;57.67;;
31424;SDS011;18054;51.572;7.372;2023-04-23T02:45:29;167.98;;;58.58;;
31424;SDS011;18054;51.572;7.372;2023-04-23T02:47:57;158.35;;;55.00;;
31424;SDS011;18054;51.572;7.372;2023-04-23T02:50:26;170.15;;;55.90;;
31424;SDS011;18054;51.572;7.372;2023-04-23T02:52:53;138.73;;;51.95;;
31424;SDS011;18054;51.572;7.372;2023-04-23T02:55:21;139.27;;;55.22;;
31424;SDS011;18054;51.572;7.372;2023-04-23T02:57:50;133.73;;;54.10;;
31424;SDS011;18054;51.572;7.372;2023-04-23T03:00:18;184.85;;;54.83;;
31424;SDS011;18054;51.572;7.372;2023-04-23T03:02:45;136.48;;;52.95;;
31424;SDS011;18054;51.572;7.372;2023-04-23T03:05:13;133.30;;;54.45;;
31424;SDS011;18054;51.572;7.372;2023-04-23T03:07:42;137.20;;;57.22;;
31424;SDS011;18054;51.572;7.372;2023-04-23T03:10:09;127.57;;;53.92;;
31424;SDS011;18054;51.572;7.372;2023-04-23T03:12:37;160.90;;;54.00;;
31424;SDS011;18054;51.572;7.372;2023-04-23T03:15:05;175.60;;;55.83;;
31424;SDS011;18054;51.572;7.372;2023-04-23T03:17:34;173.57;;;55.50;;
31424;SDS011;18054;51.572;7.372;2023-04-23T03:20:06;145.40;;;54.70;;
31424;SDS011;18054;51.572;7.372;2023-04-23T03:22:37;138.20;;;53.30;;
31424;SDS011;18054;51.572;7.372;2023-04-23T03:27:35;119.28;;;50.83;;
31424;SDS011;18054;51.572;7.372;2023-04-23T03:30:06;124.15;;;50.22;;
31424;SDS011;18054;51.572;7.372;2023-04-23T03:32:34;111.88;;;50.05;;
31424;SDS011;18054;51.572;7.372;2023-04-23T03:35:02;105.75;;;49.72;;
31424;SDS011;18054;51.572;7.372;2023-04-23T03:37:30;111.88;;;51.50;;
31424;SDS011;18054;51.572;7.372;2023-04-23T03:39:57;157.35;;;52.65;;
31424;SDS011;18054;51.572;7.372;2023-04-23T03:42:27;143.55;;;50.88;;
31424;SDS011;18054;51.572;7.372;2023-04-23T03:44:55;111.75;;;45.53;;
31424;SDS011;18054;51.572;7.372;2023-04-23T03:47:23;112.53;;;48.55;;
31424;SDS011;18054;51.572;7.372;2023-04-23T03:49:51;109.90;;;47.83;;
31424;SDS011;18054;51.572;7.372;2023-04-23T03:52:18;104.72;;;46.67;;
31424;SDS011;18054;51.572;7.372;2023-04-23T03:54:46;108.30;;;48.47;;
31424;SDS011;18054;51.572;7.372;2023-04-23T03:57:16;94.45;;;45.40;;
31424;SDS011;18054;51.572;7.372;2023-04-23T04:00:18;103.00;;;46.47;;
31424;SDS011;18054;51.572;7.372;2023-04-23T04:02:45;95.15;;;44.80;;
31424;SDS011;18054;51.572;7.372;2023-04-23T04:05:13;88.22;;;43.85;;
31424;SDS011;18054;51.572;7.372;2023-04-23T04:10:08;82.20;;;42.47;;
31424;SDS011;18054;51.572;7.372;2023-04-23T04:12:36;99.47;;;43.80;;
31424;SDS011;18054;51.572;7.372;2023-04-23T04:15:08;91.20;;;42.70;;
31424;SDS011;18054;51.572;7.372;2023-04-23T04:17:37;97.63;;;45.15;;
31424;SDS011;18054;51.572;7.372;2023-04-23T04:20:05;96.10;;;41.63;;
31424;SDS011;18054;51.572;7.372;2023-04-23T04:22:33;97.43;;;43.50;;
31424;SDS011;18054;51.572;7.372;2023-04-23T04:25:00;92.20;;;42.05;;
31424;SDS011;18054;51.572;7.372;2023-04-23T04:27:28;102.85;;;44.83;;
31424;SDS011;18054;51.572;7.372;2023-04-23T04:29:58;100.78;;;44.95;;
31424;SDS011;18054;51.572;7.372;2023-04-23T04:32:26;103.78;;;44.30;;
31424;SDS011;18054;51.572;7.372;2023-04-23T04:34:55;90.97;;;42.85;;
31424;SDS011;18054;51.572;7.372;2023-04-23T04:37:23;96.63;;;44.55;;
31424;SDS011;18054;51.572;7.372;2023-04-23T04:42:18;100.40;;;43.00;;
31424;SDS011;18054;51.572;7.372;2023-04-23T04:44:45;87.35;;;41.03;;
31424;SDS011;18054;51.572;7.372;2023-04-23T04:47:12;102.45;;;41.85;;
31424;SDS011;18054;51.572;7.372;2023-04-23T04:49:41;87.00;;;39.10;;
31424;SDS011;18054;51.572;7.372;2023-04-23T04:52:10;89.05;;;38.70;;
31424;SDS011;18054;51.572;7.372;2023-04-23T04:54:37;90.40;;;42.08;;
31424;SDS011;18054;51.572;7.372;2023-04-23T04:57:06;90.18;;;40.42;;
31424;SDS011;18054;51.572;7.372;2023-04-23T04:59:33;76.68;;;38.53;;
31424;SDS011;18054;51.572;7.372;2023-04-23T05:02:01;99.10;;;41.88;;
31424;SDS011;18054;51.572;7.372;2023-04-23T05:04:28;97.32;;;38.45;;
31424;SDS011;18054;51.572;7.372;2023-04-23T05:06:56;115.78;;;41.03;;
31424;SDS011;18054;51.572;7.372;2023-04-23T05:09:25;79.03;;;39.85;;
31424;SDS011;18054;51.572;7.372;2023-04-23T05:11:52;82.55;;;38.97;;
31424;SDS011;18054;51.572;7.372;2023-04-23T05:14:20;97.20;;;40.70;;
31424;SDS011;18054;51.572;7.372;2023-04-23T05:16:47;91.93;;;38.72;;
31424;SDS011;18054;51.572;7.372;2023-04-23T05:19:15;79.30;;;37.65;;
31424;SDS011;18054;51.572;7.372;2023-04-23T05:21:42;99.28;;;40.22;;
31424;SDS011;18054;51.572;7.372;2023-04-23T05:24:10;90.40;;;37.42;;
31424;SDS011;18054;51.572;7.372;2023-04-23T05:26:38;71.05;;;35.75;;
31424;SDS011;18054;51.572;7.372;2023-04-23T05:29:06;72.03;;;36.60;;
31424;SDS011;18054;51.572;7.372;2023-04-23T05:31:33;91.60;;;40.92;;
31424;SDS011;18054;51.572;7.372;2023-04-23T05:34:01;72.60;;;35.78;;
31424;SDS011;18054;51.572;7.372;2023-04-23T05:36:28;70.75;;;35.47;;
31424;SDS011;18054;51.572;7.372;2023-04-23T05:38:56;71.82;;;35.42;;
31424;SDS011;18054;51.572;7.372;2023-04-23T05:41:23;68.95;;;36.08;;
31424;SDS011;18054;51.572;7.372;2023-04-23T05:43:52;69.20;;;34.45;;
31424;SDS011;18054;51.572;7.372;2023-04-23T05:46:20;75.13;;;34.80;;
31424;SDS011;18054;51.572;7.372;2023-04-23T05:48:47;62.33;;;34.00;;
31424;SDS011;18054;51.572;7.372;2023-04-23T05:51:15;72.60;;;36.53;;
31424;SDS011;18054;51.572;7.372;2023-04-23T05:53:42;59.35;;;33.50;;
31424;SDS011;18054;51.572;7.372;2023-04-23T05:56:09;55.15;;;31.40;;
31424;SDS011;18054;51.572;7.372;2023-04-23T05:58:37;62.72;;;34.35;;
31424;SDS011;18054;51.572;7.372;2023-04-23T06:01:06;58.92;;;33.35;;
31424;SDS011;18054;51.572;7.372;2023-04-23T06:03:33;51.38;;;30.45;;
31424;SDS011;18054;51.572;7.372;2023-04-23T06:06:02;42.10;;;26.38;;
31424;SDS011;18054;51.572;7.372;2023-04-23T06:08:29;42.42;;;25.75;;
31424;SDS011;18054;51.572;7.372;2023-04-23T06:10:57;33.35;;;23.52;;
31424;SDS011;18054;51.572;7.372;2023-04-23T06:15:53;34.08;;;23.75;;
31424;SDS011;18054;51.572;7.372;2023-04-23T06:18:22;33.28;;;21.83;;
31424;SDS011;18054;51.572;7.372;2023-04-23T06:20:49;32.83;;;20.92;;
31424;SDS011;18054;51.572;7.372;2023-04-23T06:23:17;27.40;;;19.42;;
31424;SDS011;18054;51.572;7.372;2023-04-23T06:25:44;31.02;;;18.70;;
31424;SDS011;18054;51.572;7.372;2023-04-23T06:28:11;28.52;;;18.58;;
31424;SDS011;18054;51.572;7.372;2023-04-23T06:31:01;30.58;;;19.60;;
31424;SDS011;18054;51.572;7.372;2023-04-23T06:33:30;29.45;;;19.17;;
31424;SDS011;18054;51.572;7.372;2023-04-23T06:35:57;27.30;;;17.20;;
31424;SDS011;18054;51.572;7.372;2023-04-23T06:38:26;22.60;;;16.33;;
31424;SDS011;18054;51.572;7.372;2023-04-23T06:40:53;20.88;;;14.32;;
31424;SDS011;18054;51.572;7.372;2023-04-23T06:43:20;19.02;;;14.65;;
31424;SDS011;18054;51.572;7.372;2023-04-23T06:46:20;21.00;;;13.60;;
31424;SDS011;18054;51.572;7.372;2023-04-23T06:48:49;20.30;;;12.23;;
31424;SDS011;18054;51.572;7.372;2023-04-23T06:51:16;17.27;;;11.93;;
31424;SDS011;18054;51.572;7.372;2023-04-23T06:53:44;18.48;;;12.73;;
31424;SDS011;18054;51.572;7.372;2023-04-23T06:56:11;21.33;;;12.18;;
31424;SDS011;18054;51.572;7.372;2023-04-23T06:58:39;20.92;;;12.55;;
31424;SDS011;18054;51.572;7.372;2023-04-23T07:01:14;16.42;;;11.48;;
31424;SDS011;18054;51.572;7.372;2023-04-23T07:03:42;18.77;;;12.35;;
31424;SDS011;18054;51.572;7.372;2023-04-23T07:06:15;16.08;;;10.65;;
31424;SDS011;18054;51.572;7.372;2023-04-23T07:08:42;19.65;;;11.07;;
31424;SDS011;18054;51.572;7.372;2023-04-23T07:11:10;16.98;;;11.52;;
31424;SDS011;18054;51.572;7.372;2023-04-23T07:13:38;17.02;;;11.05;;
31424;SDS011;18054;51.572;7.372;2023-04-23T07:16:05;16.08;;;10.95;;
31424;SDS011;18054;51.572;7.372;2023-04-23T07:18:33;16.83;;;10.77;;
31424;SDS011;18054;51.572;7.372;2023-04-23T07:21:01;15.38;;;10.77;;
31424;SDS011;18054;51.572;7.372;2023-04-23T07:23:30;21.33;;;11.57;;
31424;SDS011;18054;51.572;7.372;2023-04-23T07:25:57;20.00;;;10.05;;
31424;SDS011;18054;51.572;7.372;2023-04-23T07:28:24;17.52;;;10.15;;
31424;SDS011;18054;51.572;7.372;2023-04-23T07:30:52;14.25;;;9.48;;
31424;SDS011;18054;51.572;7.372;2023-04-23T07:33:19;16.55;;;10.13;;
31424;SDS011;18054;51.572;7.372;2023-04-23T07:38:14;17.23;;;9.40;;
31424;SDS011;18054;51.572;7.372;2023-04-23T07:40:43;12.18;;;8.40;;
31424;SDS011;18054;51.572;7.372;2023-04-23T07:43:11;14.23;;;8.52;;
31424;SDS011;18054;51.572;7.372;2023-04-23T07:45:39;11.90;;;8.82;;
31424;SDS011;18054;51.572;7.372;2023-04-23T07:48:06;14.95;;;8.38;;
31424;SDS011;18054;51.572;7.372;2023-04-23T07:50:34;13.88;;;8.10;;
31424;SDS011;18054;51.572;7.372;2023-04-23T07:53:01;15.38;;;7.95;;
31424;SDS011;18054;51.572;7.372;2023-04-23T07:55:28;13.63;;;8.05;;
31424;SDS011;18054;51.572;7.372;2023-04-23T07:57:57;11.38;;;7.20;;
31424;SDS011;18054;51.572;7.372;2023-04-23T08:00:25;12.75;;;7.07;;
31424;SDS011;18054;51.572;7.372;2023-04-23T08:02:52;12.70;;;7.03;;
31424;SDS011;18054;51.572;7.372;2023-04-23T08:05:20;11.68;;;6.65;;
31424;SDS011;18054;51.572;7.372;2023-04-23T08:07:47;13.77;;;7.90;;
31424;SDS011;18054;51.572;7.372;2023-04-23T08:10:15;10.18;;;6.97;;
31424;SDS011;18054;51.572;7.372;2023-04-23T08:12:42;11.70;;;6.93;;
31424;SDS011;18054;51.572;7.372;2023-04-23T08:15:11;31.60;;;7.55;;
31424;SDS011;18054;51.572;7.372;2023-04-23T08:17:42;11.48;;;5.88;;
31424;SDS011;18054;51.572;7.372;2023-04-23T08:20:09;12.07;;;5.65;;
31424;SDS011;18054;51.572;7.372;2023-04-23T08:22:37;17.23;;;5.32;;
31424;SDS011;18054;51.572;7.372;2023-04-23T08:25:05;8.40;;;4.65;;
31424;SDS011;18054;51.572;7.372;2023-04-23T08:30:00;11.98;;;4.43;;
31424;SDS011;18054;51.572;7.372;2023-04-23T08:32:29;17.05;;;4.70;;
31424;SDS011;18054;51.572;7.372;2023-04-23T08:34:56;22.02;;;6.25;;
31424;SDS011;18054;51.572;7.372;2023-04-23T08:37:24;8.48;;;3.92;;
31424;SDS011;18054;51.572;7.372;2023-04-23T08:39:56;9.25;;;4.03;;
31424;SDS011;18054;51.572;7.372;2023-04-23T08:42:26;10.95;;;4.45;;
31424;SDS011;18054;51.572;7.372;2023-04-23T08:44:56;12.30;;;4.88;;
31424;SDS011;18054;51.572;7.372;2023-04-23T08:47:24;6.50;;;3.90;;
31424;SDS011;18054;51.572;7.372;2023-04-23T08:49:57;10.68;;;4.10;;
31424;SDS011;18054;51.572;7.372;2023-04-23T08:52:25;9.70;;;3.47;;
31424;SDS011;18054;51.572;7.372;2023-04-23T08:54:53;7.10;;;3.55;;
31424;SDS011;18054;51.572;7.372;2023-04-23T08:59:48;10.32;;;3.33;;
31424;SDS011;18054;51.572;7.372;2023-04-23T09:02:16;14.52;;;3.47;;
31424;SDS011;18054;51.572;7.372;2023-04-23T09:04:44;10.52;;;3.42;;
31424;SDS011;18054;51.572;7.372;2023-04-23T09:07:17;8.63;;;3.97;;
31424;SDS011;18054;51.572;7.372;2023-04-23T09:09:45;11.02;;;3.42;;
31424;SDS011;18054;51.572;7.372;2023-04-23T09:14:40;9.38;;;3.83;;
31424;SDS011;18054;51.572;7.372;2023-04-23T09:19:36;12.95;;;3.22;;
31424;SDS011;18054;51.572;7.372;2023-04-23T09:22:05;11.43;;;3.10;;
31424;SDS011;18054;51.572;7.372;2023-04-23T09:24:35;9.35;;;3.08;;
31424;SDS011;18054;51.572;7.372;2023-04-23T09:27:03;14.70;;;3.13;;
31424;SDS011;18054;51.572;7.372;2023-04-23T09:29:31;8.65;;;2.42;;
31424;SDS011;18054;51.572;7.372;2023-04-23T09:32:02;9.32;;;2.55;;
31424;SDS011;18054;51.572;7.372;2023-04-23T09:34:33;10.63;;;2.53;;
31424;SDS011;18054;51.572;7.372;2023-04-23T09:37:00;10.65;;;2.42;;
31424;SDS011;18054;51.572;7.372;2023-04-23T09:39:28;7.22;;;2.65;;
31424;SDS011;18054;51.572;7.372;2023-04-23T09:42:01;9.90;;;2.85;;
31424;SDS011;18054;51.572;7.372;2023-04-23T09:44:30;10.98;;;2.78;;
31424;SDS011;18054;51.572;7.372;2023-04-23T09:47:04;8.30;;;2.50;;
31424;SDS011;18054;51.572;7.372;2023-04-23T09:49:32;9.88;;;3.40;;
31424;SDS011;18054;51.572;7.372;2023-04-23T09:52:02;8.75;;;2.63;;
31424;SDS011;18054;51.572;7.372;2023-04-23T09:54:31;10.48;;;2.55;;
31424;SDS011;18054;51.572;7.372;2023-04-23T09:57:00;5.88;;;2.10;;
31424;SDS011;18054;51.572;7.372;2023-04-23T09:59:29;5.28;;;1.70;;
31424;SDS011;18054;51.572;7.372;2023-04-23T10:02:13;8.50;;;2.40;;
31424;SDS011;18054;51.572;7.372;2023-04-23T10:04:41;8.77;;;2.28;;
31424;SDS011;18054;51.572;7.372;2023-04-23T10:07:09;9.43;;;2.47;;
31424;SDS011;18054;51.572;7.372;2023-04-23T10:09:41;12.77;;;2.55;;
31424;SDS011;18054;51.572;7.372;2023-04-23T10:14:55;6.82;;;2.17;;
31424;SDS011;18054;51.572;7.372;2023-04-23T10:17:25;8.18;;;2.45;;
31424;SDS011;18054;51.572;7.372;2023-04-23T10:19:53;7.03;;;2.17;;
31424;SDS011;18054;51.572;7.372;2023-04-23T10:22:21;6.05;;;1.95;;
31424;SDS011;18054;51.572;7.372;2023-04-23T10:24:51;9.48;;;3.70;;
31424;SDS011;18054;51.572;7.372;2023-04-23T10:27:21;12.45;;;2.22;;
31424;SDS011;18054;51.572;7.372;2023-04-23T10:30:10;5.72;;;1.60;;
31424;SDS011;18054;51.572;7.372;2023-04-23T10:32:38;5.40;;;1.42;;
31424;SDS011;18054;51.572;7.372;2023-04-23T10:37:33;9.48;;;1.95;;
31424;SDS011;18054;51.572;7.372;2023-04-23T10:40:04;4.93;;;1.60;;
31424;SDS011;18054;51.572;7.372;2023-04-23T10:42:34;5.70;;;1.67;;
31424;SDS011;18054;51.572;7.372;2023-04-23T10:45:02;6.53;;;1.65;;
31424;SDS011;18054;51.572;7.372;2023-04-23T10:47:36;8.85;;;2.30;;
31424;SDS011;18054;51.572;7.372;2023-04-23T10:50:16;11.50;;;1.95;;
31424;SDS011;18054;51.572;7.372;2023-04-23T10:52:44;6.50;;;1.60;;
31424;SDS011;18054;51.572;7.372;2023-04-23T10:55:15;4.80;;;1.80;;
31424;SDS011;18054;51.572;7.372;2023-04-23T10:57:55;4.82;;;1.63;;
31424;SDS011;18054;51.572;7.372;2023-04-23T11:00:27;4.25;;;1.52;;
31424;SDS011;18054;51.572;7.372;2023-04-23T11:02:56;8.38;;;2.10;;
31424;SDS011;18054;51.572;7.372;2023-04-23T11:05:24;4.65;;;1.90;;
31424;SDS011;18054;51.572;7.372;2023-04-23T11:08:03;12.25;;;2.17;;
31424;SDS011;18054;51.572;7.372;2023-04-23T11:10:50;6.38;;;1.65;;
31424;SDS011;18054;51.572;7.372;2023-04-23T11:13:23;9.20;;;2.05;;
31424;SDS011;18054;51.572;7.372;2023-04-23T11:21:17;5.70;;;1.88;;
31424;SDS011;18054;51.572;7.372;2023-04-23T11:23:45;4.18;;;1.58;;
31424;SDS011;18054;51.572;7.372;2023-04-23T11:26:13;5.00;;;1.50;;
31424;SDS011;18054;51.572;7.372;2023-04-23T11:28:41;5.43;;;1.63;;
31424;SDS011;18054;51.572;7.372;2023-04-23T11:33:37;8.68;;;1.80;;
31424;SDS011;18054;51.572;7.372;2023-04-23T11:36:05;4.63;;;1.23;;
31424;SDS011;18054;51.572;7.372;2023-04-23T11:38:33;4.43;;;1.55;;
31424;SDS011;18054;51.572;7.372;2023-04-23T11:41:01;7.28;;;1.63;;
31424;SDS011;18054;51.572;7.372;2023-04-23T11:43:30;5.97;;;1.20;;
31424;SDS011;18054;51.572;7.372;2023-04-23T11:45:59;7.25;;;1.60;;
31424;SDS011;18054;51.572;7.372;2023-04-23T11:48:26;5.20;;;1.48;;
31424;SDS011;18054;51.572;7.372;2023-04-23T11:50:54;7.65;;;1.55;;
31424;SDS011;18054;51.572;7.372;2023-04-23T11:53:21;8.35;;;2.35;;
31424;SDS011;18054;51.572;7.372;2023-04-23T11:55:51;6.43;;;1.55;;
31424;SDS011;18054;51.572;7.372;2023-04-23T11:58:19;6.95;;;1.88;;
31424;SDS011;18054;51.572;7.372;2023-04-23T12:00:47;8.27;;;1.35;;
31424;SDS011;18054;51.572;7.372;2023-04-23T12:03:15;8.30;;;2.03;;
31424;SDS011;18054;51.572;7.372;2023-04-23T12:05:43;10.98;;;2.60;;
31424;SDS011;18054;51.572;7.372;2023-04-23T12:08:11;5.43;;;1.73;;
31424;SDS011;18054;51.572;7.372;2023-04-23T12:10:45;7.88;;;2.22;;
31424;SDS011;18054;51.572;7.372;2023-04-23T12:13:14;8.35;;;1.75;;
31424;SDS011;18054;51.572;7.372;2023-04-23T12:15:45;2.95;;;1.30;;
31424;SDS011;18054;51.572;7.372;2023-04-23T12:18:13;4.50;;;1.00;;
31424;SDS011;18054;51.572;7.372;2023-04-23T12:20:40;4.75;;;1.45;;
31424;SDS011;18054;51.572;7.372;2023-04-23T12:23:08;3.97;;;1.10;;
31424;SDS011;18054;51.572;7.372;2023-04-23T12:25:35;3.38;;;1.20;;
31424;SDS011;18054;51.572;7.372;2023-04-23T12:28:05;7.90;;;1.40;;
31424;SDS011;18054;51.572;7.372;2023-04-23T12:30:41;5.35;;;1.20;;
31424;SDS011;18054;51.572;7.372;2023-04-23T12:33:09;3.90;;;1.10;;
31424;SDS011;18054;51.572;7.372;2023-04-23T12:35:37;4.25;;;1.13;;
31424;SDS011;18054;51.572;7.372;2023-04-23T12:38:05;3.90;;;1.23;;
31424;SDS011;18054;51.572;7.372;2023-04-23T12:40:32;3.47;;;1.00;;
31424;SDS011;18054;51.572;7.372;2023-04-23T12:43:00;3.38;;;1.17;;
31424;SDS011;18054;51.572;7.372;2023-04-23T12:45:36;8.75;;;1.50;;
31424;SDS011;18054;51.572;7.372;2023-04-23T12:48:04;5.97;;;1.23;;
31424;SDS011;18054;51.572;7.372;2023-04-23T12:50:31;3.95;;;1.25;;
31424;SDS011;18054;51.572;7.372;2023-04-23T12:52:59;5.07;;;1.33;;
31424;SDS011;18054;51.572;7.372;2023-04-23T12:55:26;4.88;;;1.52;;
31424;SDS011;18054;51.572;7.372;2023-04-23T12:57:53;10.45;;;2.20;;
31424;SDS011;18054;51.572;7.372;2023-04-23T13:00:21;8.65;;;1.95;;
31424;SDS011;18054;51.572;7.372;2023-04-23T13:02:51;5.05;;;1.38;;
31424;SDS011;18054;51.572;7.372;2023-04-23T13:05:18;8.27;;;1.60;;
31424;SDS011;18054;51.572;7.372;2023-04-23T13:07:46;6.68;;;2.05;;
31424;SDS011;18054;51.572;7.372;2023-04-23T13:10:13;8.15;;;1.20;;
31424;SDS011;18054;51.572;7.372;2023-04-23T13:15:08;5.55;;;1.27;;
31424;SDS011;18054;51.572;7.372;2023-04-23T13:17:37;4.60;;;1.30;;
31424;SDS011;18054;51.572;7.372;2023-04-23T13:20:07;8.95;;;1.20;;
31424;SDS011;18054;51.572;7.372;2023-04-23T13:22:35;3.47;;;1.17;;
31424;SDS011;18054;51.572;7.372;2023-04-23T13:25:02;12.95;;;1.50;;
31424;SDS011;18054;51.572;7.372;2023-04-23T13:29:57;5.85;;;1.35;;
31424;SDS011;18054;51.572;7.372;2023-04-23T13:32:25;6.95;;;1.20;;
31424;SDS011;18054;51.572;7.372;2023-04-23T13:34:57;6.05;;;1.60;;
31424;SDS011;18054;51.572;7.372;2023-04-23T13:37:29;4.78;;;0.90;;
31424;SDS011;18054;51.572;7.372;2023-04-23T13:39:57;5.28;;;1.30;;
31424;SDS011;18054;51.572;7.372;2023-04-23T13:42:24;4.78;;;1.30;;
31424;SDS011;18054;51.572;7.372;2023-04-23T13:44:52;5.72;;;0.90;;
31424;SDS011;18054;51.572;7.372;2023-04-23T13:47:19;4.68;;;1.60;;
31424;SDS011;18054;51.572;7.372;2023-04-23T13:49:47;4.53;;;1.23;;
31424;SDS011;18054;51.572;7.372;2023-04-23T13:52:14;5.22;;;1.25;;
31424;SDS011;18054;51.572;7.372;2023-04-23T13:54:43;7.45;;;1.50;;
31424;SDS011;18054;51.572;7.372;2023-04-23T13:57:12;5.55;;;1.33;;
31424;SDS011;18054;51.572;7.372;2023-04-23T13:59:40;6.68;;;1.83;;
31424;SDS011;18054;51.572;7.372;2023-04-23T14:02:08;7.60;;;1.52;;
31424;SDS011;18054;51.572;7.372;2023-04-23T14:07:04;10.18;;;1.65;;
31424;SDS011;18054;51.572;7.372;2023-04-23T14:09:32;5.32;;;1.38;;
31424;SDS011;18054;51.572;7.372;2023-04-23T14:12:02;4.53;;;1.33;;
31424;SDS011;18054;51.572;7.372;2023-04-23T14:14:29;5.50;;;1.40;;
31424;SDS011;18054;51.572;7.372;2023-04-23T14:16:57;4.45;;;1.13;;
31424;SDS011;18054;51.572;7.372;2023-04-23T14:19:24;6.15;;;1.23;;
31424;SDS011;18054;51.572;7.372;2023-04-23T14:21:52;3.92;;;1.10;;
31424;SDS011;18054;51.572;7.372;2023-04-23T14:24:21;2.47;;;0.95;;
31424;SDS011;18054;51.572;7.372;2023-04-23T14:26:48;2.72;;;1.02;;
31424;SDS011;18054;51.572;7.372;2023-04-23T14:29:21;4.82;;;0.98;;
31424;SDS011;18054;51.572;7.372;2023-04-23T14:31:49;4.88;;;1.08;;
31424;SDS011;18054;51.572;7.372;2023-04-23T14:34:17;4.13;;;1.00;;
31424;SDS011;18054;51.572;7.372;2023-04-23T14:36:44;4.50;;;0.90;;
31424;SDS011;18054;51.572;7.372;2023-04-23T14:39:14;6.85;;;1.23;;
31424;SDS011;18054;51.572;7.372;2023-04-23T14:41:42;11.02;;;1.30;;
31424;SDS011;18054;51.572;7.372;2023-04-23T14:44:09;8.45;;;1.33;;
31424;SDS011;18054;51.572;7.372;2023-04-23T14:46:38;3.05;;;0.85;;
31424;SDS011;18054;51.572;7.372;2023-04-23T14:49:06;4.75;;;1.02;;
31424;SDS011;18054;51.572;7.372;2023-04-23T14:54:02;6.03;;;0.93;;
31424;SDS011;18054;51.572;7.372;2023-04-23T14:56:30;5.03;;;1.15;;
31424;SDS011;18054;51.572;7.372;2023-04-23T14:58:57;7.22;;;1.23;;
31424;SDS011;18054;51.572;7.372;2023-04-23T15:01:24;2.97;;;0.95;;
31424;SDS011;18054;51.572;7.372;2023-04-23T15:03:53;2.00;;;0.68;;
31424;SDS011;18054;51.572;7.372;2023-04-23T15:06:21;4.45;;;0.85;;
31424;SDS011;18054;51.572;7.372;2023-04-23T15:08:49;3.60;;;1.00;;
31424;SDS011;18054;51.572;7.372;2023-04-23T15:11:16;4.57;;;0.98;;
31424;SDS011;18054;51.572;7.372;2023-04-23T15:13:44;2.90;;;0.90;;
31424;SDS011;18054;51.572;7.372;2023-04-23T15:16:18;2.05;;;0.65;;
31424;SDS011;18054;51.572;7.372;2023-04-23T15:19:11;1.45;;;0.70;;
31424;SDS011;18054;51.572;7.372;2023-04-23T15:21:38;2.28;;;0.80;;
31424;SDS011;18054;51.572;7.372;2023-04-23T15:24:08;3.00;;;0.90;;
31424;SDS011;18054;51.572;7.372;2023-04-23T15:26:35;7.63;;;1.17;;
31424;SDS011;18054;51.572;7.372;2023-04-23T15:29:03;8.70;;;1.65;;
31424;SDS011;18054;51.572;7.372;2023-04-23T15:31:31;5.35;;;1.02;;
31424;SDS011;18054;51.572;7.372;2023-04-23T15:33:58;3.22;;;1.02;;
31424;SDS011;18054;51.572;7.372;2023-04-23T15:36:27;3.58;;;0.77;;
31424;SDS011;18054;51.572;7.372;2023-04-23T15:38:54;3.55;;;1.02;;